sensor_id;sensor_type;location;lat;lon;timestamp;pressure;altitude;pressure_sealevel;temperature;humidity
46456;BME280;64052;47.466;9.094;2022-12-16T00:00:36;94180.22;;;2.85;76.15
46456;BME280;64052;47.466;9.094;2022-12-16T00:05:38;94183.44;;;2.77;76.37
46456;BME280;64052;47.466;9.094;2022-12-16T00:10:44;94178.97;;;2.79;76.42
46456;BME280;64052;47.466;9.094;2022-12-16T00:15:46;94189.22;;;2.81;75.94
46456;BME280;64052;47.466;9.094;2022-12-16T00:20:50;94174.94;;;2.75;75.87
46456;BME280;64052;47.466;9.094;2022-12-16T00:25:55;94183.84;;;2.73;76.37
46456;BME280;64052;47.466;9.094;2022-12-16T00:30:56;94185.22;;;2.77;76.66
46456;BME280;64052;47.466;9.094;2022-12-16T00:35:58;94189.69;;;2.86;75.97
46456;BME280;64052;47.466;9.094;2022-12-16T00:40:59;94189.81;;;2.85;76.17
46456;BME280;64052;47.466;9.094;2022-12-16T00:46:01;94174.31;;;2.83;75.50
46456;BME280;64052;47.466;9.094;2022-12-16T00:51:03;94194.09;;;2.74;75.89
46456;BME280;64052;47.466;9.094;2022-12-16T00:56:07;94199.66;;;2.70;75.67
46456;BME280;64052;47.466;9.094;2022-12-16T01:01:09;94217.78;;;2.71;76.38
46456;BME280;64052;47.466;9.094;2022-12-16T01:06:14;94214.56;;;2.79;75.64
46456;BME280;64052;47.466;9.094;2022-12-16T01:11:17;94213.34;;;2.83;75.79
46456;BME280;64052;47.466;9.094;2022-12-16T01:16:19;94216.72;;;2.74;76.19
46456;BME280;64052;47.466;9.094;2022-12-16T01:21:21;94234.94;;;2.74;76.60
46456;BME280;64052;47.466;9.094;2022-12-16T01:26:22;94228.97;;;2.83;76.38
46456;BME280;64052;47.466;9.094;2022-12-16T01:31:24;94231.44;;;2.85;75.89
46456;BME280;64052;47.466;9.094;2022-12-16T01:36:26;94227.47;;;2.80;76.44
46456;BME280;64052;47.466;9.094;2022-12-16T01:41:27;94238.22;;;2.76;76.26
46456;BME280;64052;47.466;9.094;2022-12-16T01:46:29;94255.97;;;2.71;76.52
46456;BME280;64052;47.466;9.094;2022-12-16T01:51:36;94263.09;;;2.69;76.50
46456;BME280;64052;47.466;9.094;2022-12-16T01:56:43;94271.84;;;2.67;76.74
46456;BME280;64052;47.466;9.094;2022-12-16T02:01:46;94276.31;;;2.77;76.18
46456;BME280;64052;47.466;9.094;2022-12-16T02:06:48;94270.41;;;2.75;76.17
46456;BME280;64052;47.466;9.094;2022-12-16T02:12:17;94274.16;;;2.82;75.93
46456;BME280;64052;47.466;9.094;2022-12-16T02:28:53;94275.31;;;2.57;77.30
46456;BME280;64052;47.466;9.094;2022-12-16T02:34:25;94280.25;;;2.60;76.47
46456;BME280;64052;47.466;9.094;2022-12-16T02:39:35;94299.53;;;2.57;76.80
46456;BME280;64052;47.466;9.094;2022-12-16T02:45:24;94293.16;;;2.61;77.06
46456;BME280;64052;47.466;9.094;2022-12-16T02:50:18;94300.47;;;2.67;76.44
46456;BME280;64052;47.466;9.094;2022-12-16T02:55:28;94294.66;;;2.75;76.32
46456;BME280;64052;47.466;9.094;2022-12-16T03:00:40;94298.91;;;2.76;76.69
46456;BME280;64052;47.466;9.094;2022-12-16T03:05:49;94308.63;;;2.74;76.60
46456;BME280;64052;47.466;9.094;2022-12-16T03:11:00;94305.66;;;2.79;76.08
46456;BME280;64052;47.466;9.094;2022-12-16T03:16:05;94310.28;;;2.64;76.42
46456;BME280;64052;47.466;9.094;2022-12-16T03:21:08;94303.56;;;2.61;76.10
46456;BME280;64052;47.466;9.094;2022-12-16T03:26:16;94317.75;;;2.57;76.84
46456;BME280;64052;47.466;9.094;2022-12-16T03:31:51;94327.00;;;2.50;76.95
46456;BME280;64052;47.466;9.094;2022-12-16T03:36:59;94336.22;;;2.43;77.12
46456;BME280;64052;47.466;9.094;2022-12-16T03:42:03;94342.84;;;2.24;78.54
46456;BME280;64052;47.466;9.094;2022-12-16T03:47:05;94337.75;;;2.34;78.21
46456;BME280;64052;47.466;9.094;2022-12-16T03:52:07;94348.03;;;2.35;78.43
46456;BME280;64052;47.466;9.094;2022-12-16T03:57:09;94343.66;;;2.36;78.12
46456;BME280;64052;47.466;9.094;2022-12-16T04:02:16;94352.16;;;2.49;77.63
46456;BME280;64052;47.466;9.094;2022-12-16T04:07:17;94357.72;;;2.45;77.78
46456;BME280;64052;47.466;9.094;2022-12-16T04:12:19;94365.31;;;2.48;77.80
46456;BME280;64052;47.466;9.094;2022-12-16T04:17:21;94370.28;;;2.51;76.80
46456;BME280;64052;47.466;9.094;2022-12-16T04:22:25;94382.94;;;2.56;76.92
46456;BME280;64052;47.466;9.094;2022-12-16T04:27:27;94382.94;;;2.56;76.70
46456;BME280;64052;47.466;9.094;2022-12-16T04:32:29;94389.88;;;2.55;77.10
46456;BME280;64052;47.466;9.094;2022-12-16T04:37:31;94403.16;;;2.52;77.29
46456;BME280;64052;47.466;9.094;2022-12-16T04:42:33;94414.97;;;2.56;76.96
46456;BME280;64052;47.466;9.094;2022-12-16T04:47:34;94420.41;;;2.53;76.80
46456;BME280;64052;47.466;9.094;2022-12-16T04:52:35;94430.09;;;2.51;76.65
46456;BME280;64052;47.466;9.094;2022-12-16T04:57:37;94423.47;;;2.58;77.07
46456;BME280;64052;47.466;9.094;2022-12-16T05:02:38;94432.81;;;2.61;76.72
46456;BME280;64052;47.466;9.094;2022-12-16T05:07:40;94438.13;;;2.59;76.86
46456;BME280;64052;47.466;9.094;2022-12-16T05:12:42;94444.28;;;2.58;77.04
46456;BME280;64052;47.466;9.094;2022-12-16T05:17:43;94446.91;;;2.58;77.24
46456;BME280;64052;47.466;9.094;2022-12-16T05:22:45;94466.06;;;2.57;77.39
46456;BME280;64052;47.466;9.094;2022-12-16T05:27:50;94475.03;;;2.53;77.48
46456;BME280;64052;47.466;9.094;2022-12-16T05:32:52;94480.97;;;2.55;76.96
46456;BME280;64052;47.466;9.094;2022-12-16T05:37:55;94486.41;;;2.52;77.17
46456;BME280;64052;47.466;9.094;2022-12-16T05:42:57;94497.50;;;2.54;76.87
46456;BME280;64052;47.466;9.094;2022-12-16T05:47:58;94505.56;;;2.51;76.80
46456;BME280;64052;47.466;9.094;2022-12-16T05:53:00;94510.28;;;2.57;76.89
46456;BME280;64052;47.466;9.094;2022-12-16T05:58:01;94517.66;;;2.63;76.80
46456;BME280;64052;47.466;9.094;2022-12-16T06:03:03;94518.47;;;2.64;76.50
46456;BME280;64052;47.466;9.094;2022-12-16T06:08:05;94519.28;;;2.53;76.78
46456;BME280;64052;47.466;9.094;2022-12-16T06:13:06;94528.72;;;2.43;77.31
46456;BME280;64052;47.466;9.094;2022-12-16T06:18:07;94534.25;;;2.38;77.08
46456;BME280;64052;47.466;9.094;2022-12-16T06:23:09;94545.38;;;2.40;77.01
46456;BME280;64052;47.466;9.094;2022-12-16T06:28:10;94551.16;;;2.44;77.07
46456;BME280;64052;47.466;9.094;2022-12-16T06:33:12;94559.34;;;2.50;76.89
46456;BME280;64052;47.466;9.094;2022-12-16T06:38:13;94566.56;;;2.47;76.94
46456;BME280;64052;47.466;9.094;2022-12-16T06:43:15;94572.69;;;2.46;77.26
46456;BME280;64052;47.466;9.094;2022-12-16T06:48:16;94584.31;;;2.53;76.90
46456;BME280;64052;47.466;9.094;2022-12-16T06:53:18;94586.69;;;2.56;76.50
46456;BME280;64052;47.466;9.094;2022-12-16T06:58:19;94593.31;;;2.49;77.10
46456;BME280;64052;47.466;9.094;2022-12-16T07:03:21;94601.31;;;2.46;76.83
46456;BME280;64052;47.466;9.094;2022-12-16T07:08:22;94619.38;;;2.60;76.77
46456;BME280;64052;47.466;9.094;2022-12-16T07:13:24;94627.56;;;2.67;75.68
46456;BME280;64052;47.466;9.094;2022-12-16T07:18:25;94642.59;;;2.75;74.85
46456;BME280;64052;47.466;9.094;2022-12-16T07:23:27;94643.59;;;2.61;74.04
46456;BME280;64052;47.466;9.094;2022-12-16T07:28:28;94645.81;;;2.54;74.03
46456;BME280;64052;47.466;9.094;2022-12-16T07:33:30;94651.88;;;2.55;74.36
46456;BME280;64052;47.466;9.094;2022-12-16T07:38:32;94659.50;;;2.45;74.63
46456;BME280;64052;47.466;9.094;2022-12-16T07:43:33;94664.59;;;2.46;74.52
46456;BME280;64052;47.466;9.094;2022-12-16T07:48:35;94676.03;;;2.44;74.97
46456;BME280;64052;47.466;9.094;2022-12-16T07:53:36;94679.59;;;2.43;74.85
46456;BME280;64052;47.466;9.094;2022-12-16T07:58:39;94702.25;;;2.53;74.84
46456;BME280;64052;47.466;9.094;2022-12-16T08:03:41;94702.66;;;2.60;74.23
46456;BME280;64052;47.466;9.094;2022-12-16T08:08:42;94716.47;;;2.61;74.37
46456;BME280;64052;47.466;9.094;2022-12-16T08:13:44;94730.72;;;2.68;74.17
46456;BME280;64052;47.466;9.094;2022-12-16T08:18:45;94737.59;;;2.69;74.08
46456;BME280;64052;47.466;9.094;2022-12-16T08:23:47;94732.31;;;2.58;75.18
46456;BME280;64052;47.466;9.094;2022-12-16T08:28:49;94749.34;;;2.62;75.23
46456;BME280;64052;47.466;9.094;2022-12-16T08:33:50;94754.47;;;2.63;75.18
46456;BME280;64052;47.466;9.094;2022-12-16T08:38:53;94758.00;;;2.62;74.95
46456;BME280;64052;47.466;9.094;2022-12-16T08:43:56;94763.56;;;2.45;75.31
46456;BME280;64052;47.466;9.094;2022-12-16T08:48:57;94761.25;;;2.53;76.07
46456;BME280;64052;47.466;9.094;2022-12-16T08:53:58;94764.75;;;2.65;75.64
46456;BME280;64052;47.466;9.094;2022-12-16T08:59:00;94772.63;;;2.76;75.73
46456;BME280;64052;47.466;9.094;2022-12-16T09:04:01;94781.50;;;2.74;75.55
46456;BME280;64052;47.466;9.094;2022-12-16T09:09:03;94782.31;;;2.74;75.32
46456;BME280;64052;47.466;9.094;2022-12-16T09:14:05;94787.44;;;2.76;75.55
46456;BME280;64052;47.466;9.094;2022-12-16T09:19:06;94799.50;;;2.77;75.29
46456;BME280;64052;47.466;9.094;2022-12-16T09:24:08;94794.22;;;2.65;75.66
46456;BME280;64052;47.466;9.094;2022-12-16T09:29:09;94808.28;;;2.63;75.63
46456;BME280;64052;47.466;9.094;2022-12-16T09:34:11;94814.47;;;2.49;75.99
46456;BME280;64052;47.466;9.094;2022-12-16T09:39:12;94817.06;;;2.49;76.66
46456;BME280;64052;47.466;9.094;2022-12-16T09:49:47;94815.47;;;2.59;75.72
46456;BME280;64052;47.466;9.094;2022-12-16T09:54:50;94819.44;;;2.52;75.67
46456;BME280;64052;47.466;9.094;2022-12-16T10:00:00;94831.19;;;2.58;75.46
46456;BME280;64052;47.466;9.094;2022-12-16T10:05:10;94843.03;;;2.75;75.04
46456;BME280;64052;47.466;9.094;2022-12-16T10:10:24;94839.00;;;2.95;74.59
46456;BME280;64052;47.466;9.094;2022-12-16T10:15:50;94854.72;;;2.93;74.42
46456;BME280;64052;47.466;9.094;2022-12-16T10:20:56;94846.59;;;2.98;74.15
46456;BME280;64052;47.466;9.094;2022-12-16T10:26:06;94845.47;;;2.89;74.94
46456;BME280;64052;47.466;9.094;2022-12-16T10:31:15;94852.84;;;2.95;74.30
46456;BME280;64052;47.466;9.094;2022-12-16T10:36:21;94854.41;;;2.98;74.00
46456;BME280;64052;47.466;9.094;2022-12-16T10:41:26;94850.91;;;2.86;73.49
46456;BME280;64052;47.466;9.094;2022-12-16T10:46:33;94858.00;;;2.84;74.30
46456;BME280;64052;47.466;9.094;2022-12-16T10:51:35;94869.06;;;2.75;75.26
46456;BME280;64052;47.466;9.094;2022-12-16T11:01:59;94873.53;;;2.73;74.71
46456;BME280;64052;47.466;9.094;2022-12-16T11:07:00;94873.34;;;2.63;75.49
46456;BME280;64052;47.466;9.094;2022-12-16T11:12:30;94880.50;;;2.59;74.40
46456;BME280;64052;47.466;9.094;2022-12-16T11:17:32;94881.69;;;2.55;74.78
46456;BME280;64052;47.466;9.094;2022-12-16T11:22:33;94882.53;;;2.56;74.81
46456;BME280;64052;47.466;9.094;2022-12-16T11:27:36;94889.47;;;2.55;74.03
46456;BME280;64052;47.466;9.094;2022-12-16T11:32:42;94879.78;;;2.57;73.75
46456;BME280;64052;47.466;9.094;2022-12-16T11:37:45;94878.75;;;2.60;73.64
46456;BME280;64052;47.466;9.094;2022-12-16T11:42:48;94884.91;;;2.59;73.72
46456;BME280;64052;47.466;9.094;2022-12-16T11:48:00;94889.59;;;2.53;73.77
46456;BME280;64052;47.466;9.094;2022-12-16T11:53:27;94887.50;;;2.59;74.92
46456;BME280;64052;47.466;9.094;2022-12-16T12:03:42;94898.84;;;2.58;74.73
46456;BME280;64052;47.466;9.094;2022-12-16T12:19:09;94909.47;;;2.55;74.66
46456;BME280;64052;47.466;9.094;2022-12-16T12:29:38;94925.28;;;2.51;75.10
46456;BME280;64052;47.466;9.094;2022-12-16T12:35:09;94931.25;;;2.53;74.99
46456;BME280;64052;47.466;9.094;2022-12-16T12:50:42;94925.09;;;2.42;74.95
46456;BME280;64052;47.466;9.094;2022-12-16T12:56:43;94928.13;;;2.35;74.57
46456;BME280;64052;47.466;9.094;2022-12-16T13:01:40;94930.19;;;2.30;74.84
46456;BME280;64052;47.466;9.094;2022-12-16T13:06:43;94934.34;;;2.33;74.76
46456;BME280;64052;47.466;9.094;2022-12-16T13:17:12;94952.88;;;2.28;75.31
46456;BME280;64052;47.466;9.094;2022-12-16T13:22:31;94948.91;;;2.22;74.92
46456;BME280;64052;47.466;9.094;2022-12-16T13:27:46;94965.22;;;2.24;75.33
46456;BME280;64052;47.466;9.094;2022-12-16T13:33:01;94979.09;;;2.25;75.70
46456;BME280;64052;47.466;9.094;2022-12-16T13:38:18;94986.53;;;2.17;75.70
46456;BME280;64052;47.466;9.094;2022-12-16T13:49:59;94997.97;;;2.01;76.92
46456;BME280;64052;47.466;9.094;2022-12-16T13:54:39;95000.22;;;1.93;76.82
46456;BME280;64052;47.466;9.094;2022-12-16T13:59:42;95002.72;;;1.94;76.90
46456;BME280;64052;47.466;9.094;2022-12-16T14:04:50;95015.31;;;2.01;77.29
46456;BME280;64052;47.466;9.094;2022-12-16T14:09:52;95019.56;;;2.02;77.33
46456;BME280;64052;47.466;9.094;2022-12-16T14:15:58;95031.91;;;2.13;76.49
46456;BME280;64052;47.466;9.094;2022-12-16T14:21:04;95042.81;;;2.18;76.51
46456;BME280;64052;47.466;9.094;2022-12-16T14:26:09;95057.28;;;2.22;76.14
46456;BME280;64052;47.466;9.094;2022-12-16T14:31:33;95072.06;;;2.21;75.78
46456;BME280;64052;47.466;9.094;2022-12-16T14:36:38;95079.78;;;2.23;74.97
46456;BME280;64052;47.466;9.094;2022-12-16T14:41:40;95083.28;;;2.22;75.05
46456;BME280;64052;47.466;9.094;2022-12-16T14:46:41;95088.72;;;2.19;75.09
46456;BME280;64052;47.466;9.094;2022-12-16T14:51:46;95088.72;;;2.19;74.70
46456;BME280;64052;47.466;9.094;2022-12-16T14:56:48;95096.66;;;2.30;74.17
46456;BME280;64052;47.466;9.094;2022-12-16T15:01:51;95100.91;;;2.31;73.89
46456;BME280;64052;47.466;9.094;2022-12-16T15:06:54;95102.22;;;2.38;74.52
46456;BME280;64052;47.466;9.094;2022-12-16T15:11:56;95112.91;;;2.34;73.78
46456;BME280;64052;47.466;9.094;2022-12-16T15:16:57;95125.13;;;2.19;74.03
46456;BME280;64052;47.466;9.094;2022-12-16T15:21:59;95131.44;;;2.15;74.19
46456;BME280;64052;47.466;9.094;2022-12-16T15:32:27;95148.81;;;2.14;75.86
46456;BME280;64052;47.466;9.094;2022-12-16T15:37:38;95148.53;;;2.19;75.84
46456;BME280;64052;47.466;9.094;2022-12-16T15:42:40;95158.41;;;2.14;75.68
46456;BME280;64052;47.466;9.094;2022-12-16T15:47:42;95177.16;;;2.04;75.19
46456;BME280;64052;47.466;9.094;2022-12-16T15:52:43;95176.72;;;1.98;75.81
46456;BME280;64052;47.466;9.094;2022-12-16T15:57:55;95177.91;;;2.06;76.64
46456;BME280;64052;47.466;9.094;2022-12-16T16:02:56;95183.66;;;2.12;76.07
46456;BME280;64052;47.466;9.094;2022-12-16T16:07:58;95206.69;;;2.03;76.46
46456;BME280;64052;47.466;9.094;2022-12-16T16:13:05;95201.69;;;2.00;76.31
46456;BME280;64052;47.466;9.094;2022-12-16T16:18:08;95210.31;;;2.01;75.60
46456;BME280;64052;47.466;9.094;2022-12-16T16:23:10;95220.81;;;1.99;75.54
46456;BME280;64052;47.466;9.094;2022-12-16T16:28:12;95229.00;;;1.93;75.57
46456;BME280;64052;47.466;9.094;2022-12-16T16:33:13;95227.97;;;1.81;75.22
46456;BME280;64052;47.466;9.094;2022-12-16T16:38:15;95242.00;;;1.78;75.29
46456;BME280;64052;47.466;9.094;2022-12-16T16:43:19;95252.00;;;1.85;75.75
46456;BME280;64052;47.466;9.094;2022-12-16T16:48:28;95247.91;;;1.95;75.26
46456;BME280;64052;47.466;9.094;2022-12-16T16:53:30;95255.19;;;1.90;74.70
46456;BME280;64052;47.466;9.094;2022-12-16T16:58:33;95253.03;;;1.82;74.87
46456;BME280;64052;47.466;9.094;2022-12-16T17:03:34;95273.09;;;1.80;75.16
46456;BME280;64052;47.466;9.094;2022-12-16T17:08:37;95284.31;;;1.80;76.43
46456;BME280;64052;47.466;9.094;2022-12-16T17:13:38;95283.03;;;1.88;76.49
46456;BME280;64052;47.466;9.094;2022-12-16T17:18:40;95295.94;;;1.89;75.97
46456;BME280;64052;47.466;9.094;2022-12-16T17:23:48;95291.84;;;1.85;75.14
46456;BME280;64052;47.466;9.094;2022-12-16T17:28:50;95309.59;;;1.93;74.40
46456;BME280;64052;47.466;9.094;2022-12-16T17:33:51;95318.31;;;1.92;74.23
46456;BME280;64052;47.466;9.094;2022-12-16T17:38:53;95332.97;;;1.93;73.95
46456;BME280;64052;47.466;9.094;2022-12-16T17:43:54;95349.50;;;1.92;73.57
46456;BME280;64052;47.466;9.094;2022-12-16T17:48:57;95351.19;;;1.93;73.89
46456;BME280;64052;47.466;9.094;2022-12-16T17:53:59;95352.97;;;1.92;73.21
46456;BME280;64052;47.466;9.094;2022-12-16T17:59:07;95369.56;;;1.90;72.77
46456;BME280;64052;47.466;9.094;2022-12-16T18:04:11;95369.84;;;1.85;72.93
46456;BME280;64052;47.466;9.094;2022-12-16T18:09:13;95386.63;;;1.79;72.21
46456;BME280;64052;47.466;9.094;2022-12-16T18:14:14;95402.41;;;1.76;73.05
46456;BME280;64052;47.466;9.094;2022-12-16T18:19:16;95401.16;;;1.67;72.00
46456;BME280;64052;47.466;9.094;2022-12-16T18:24:18;95405.69;;;1.64;71.61
46456;BME280;64052;47.466;9.094;2022-12-16T18:29:19;95410.16;;;1.62;71.53
46456;BME280;64052;47.466;9.094;2022-12-16T18:34:21;95427.31;;;1.64;71.44
46456;BME280;64052;47.466;9.094;2022-12-16T18:39:22;95437.06;;;1.61;72.15
46456;BME280;64052;47.466;9.094;2022-12-16T18:44:24;95435.22;;;1.63;71.30
46456;BME280;64052;47.466;9.094;2022-12-16T18:49:25;95440.91;;;1.53;71.02
46456;BME280;64052;47.466;9.094;2022-12-16T18:54:27;95441.34;;;1.46;71.50
46456;BME280;64052;47.466;9.094;2022-12-16T18:59:28;95441.53;;;1.43;71.00
46456;BME280;64052;47.466;9.094;2022-12-16T19:04:33;95445.25;;;1.53;70.96
46456;BME280;64052;47.466;9.094;2022-12-16T19:09:34;95454.16;;;1.49;70.30
46456;BME280;64052;47.466;9.094;2022-12-16T19:14:36;95472.94;;;1.38;70.77
46456;BME280;64052;47.466;9.094;2022-12-16T19:19:37;95474.63;;;1.39;70.69
46456;BME280;64052;47.466;9.094;2022-12-16T19:24:38;95484.16;;;1.38;70.28
46456;BME280;64052;47.466;9.094;2022-12-16T19:29:40;95498.41;;;1.47;69.76
46456;BME280;64052;47.466;9.094;2022-12-16T19:34:41;95500.19;;;1.47;70.71
46456;BME280;64052;47.466;9.094;2022-12-16T19:39:43;95510.56;;;1.47;70.67
46456;BME280;64052;47.466;9.094;2022-12-16T19:44:44;95510.06;;;1.40;70.22
46456;BME280;64052;47.466;9.094;2022-12-16T19:49:46;95516.25;;;1.37;71.03
46456;BME280;64052;47.466;9.094;2022-12-16T19:54:47;95518.34;;;1.31;71.43
46456;BME280;64052;47.466;9.094;2022-12-16T19:59:49;95535.03;;;1.26;70.99
46456;BME280;64052;47.466;9.094;2022-12-16T20:04:52;95541.22;;;1.24;70.99
46456;BME280;64052;47.466;9.094;2022-12-16T20:09:56;95547.56;;;1.18;70.46
46456;BME280;64052;47.466;9.094;2022-12-16T20:14:58;95549.47;;;1.15;71.35
46456;BME280;64052;47.466;9.094;2022-12-16T20:19:59;95549.72;;;1.10;70.80
46456;BME280;64052;47.466;9.094;2022-12-16T20:25:01;95561.03;;;1.09;70.86
46456;BME280;64052;47.466;9.094;2022-12-16T20:30:03;95574.75;;;1.11;70.37
46456;BME280;64052;47.466;9.094;2022-12-16T20:35:04;95579.97;;;1.11;71.16
46456;BME280;64052;47.466;9.094;2022-12-16T20:40:06;95585.47;;;1.05;71.52
46456;BME280;64052;47.466;9.094;2022-12-16T20:45:10;95593.56;;;0.98;71.79
46456;BME280;64052;47.466;9.094;2022-12-16T20:50:13;95602.16;;;1.01;71.82
46456;BME280;64052;47.466;9.094;2022-12-16T20:55:14;95601.22;;;1.02;71.58
46456;BME280;64052;47.466;9.094;2022-12-16T21:00:16;95608.41;;;0.96;71.78
46456;BME280;64052;47.466;9.094;2022-12-16T21:05:18;95612.13;;;0.91;71.85
46456;BME280;64052;47.466;9.094;2022-12-16T21:10:19;95619.84;;;0.92;71.52
46456;BME280;64052;47.466;9.094;2022-12-16T21:15:21;95634.69;;;0.90;71.94
46456;BME280;64052;47.466;9.094;2022-12-16T21:20:22;95633.53;;;0.96;72.36
46456;BME280;64052;47.466;9.094;2022-12-16T21:25:24;95640.47;;;0.95;71.85
46456;BME280;64052;47.466;9.094;2022-12-16T21:30:26;95649.78;;;1.00;72.21
46456;BME280;64052;47.466;9.094;2022-12-16T21:35:27;95654.06;;;1.01;71.69
46456;BME280;64052;47.466;9.094;2022-12-16T21:40:29;95656.19;;;0.92;72.28
46456;BME280;64052;47.466;9.094;2022-12-16T21:45:30;95662.31;;;0.91;72.41
46456;BME280;64052;47.466;9.094;2022-12-16T21:50:32;95672.84;;;0.88;72.69
46456;BME280;64052;47.466;9.094;2022-12-16T21:55:34;95674.16;;;0.97;73.23
46456;BME280;64052;47.466;9.094;2022-12-16T22:00:35;95684.31;;;1.02;72.83
46456;BME280;64052;47.466;9.094;2022-12-16T22:05:37;95699.66;;;1.06;73.23
46456;BME280;64052;47.466;9.094;2022-12-16T22:10:38;95696.16;;;1.07;73.24
46456;BME280;64052;47.466;9.094;2022-12-16T22:15:39;95699.19;;;1.16;72.68
46456;BME280;64052;47.466;9.094;2022-12-16T22:20:41;95707.50;;;1.22;72.34
46456;BME280;64052;47.466;9.094;2022-12-16T22:25:42;95707.59;;;1.21;72.47
46456;BME280;64052;47.466;9.094;2022-12-16T22:30:51;95712.69;;;1.22;72.47
46456;BME280;64052;47.466;9.094;2022-12-16T22:36:03;95722.00;;;1.09;72.71
46456;BME280;64052;47.466;9.094;2022-12-16T22:41:05;95726.88;;;0.97;73.28
46456;BME280;64052;47.466;9.094;2022-12-16T22:46:07;95728.56;;;0.98;73.49
46456;BME280;64052;47.466;9.094;2022-12-16T22:51:12;95737.06;;;1.02;73.51
46456;BME280;64052;47.466;9.094;2022-12-16T22:56:14;95727.13;;;1.10;72.97
46456;BME280;64052;47.466;9.094;2022-12-16T23:01:16;95730.28;;;1.17;73.08
46456;BME280;64052;47.466;9.094;2022-12-16T23:06:17;95733.47;;;1.22;72.54
46456;BME280;64052;47.466;9.094;2022-12-16T23:11:24;95727.44;;;1.22;72.56
46456;BME280;64052;47.466;9.094;2022-12-16T23:16:26;95729.28;;;1.20;72.38
46456;BME280;64052;47.466;9.094;2022-12-16T23:21:27;95728.59;;;1.16;72.71
46456;BME280;64052;47.466;9.094;2022-12-16T23:26:29;95739.75;;;1.18;72.20
46456;BME280;64052;47.466;9.094;2022-12-16T23:31:30;95741.03;;;1.27;72.15
46456;BME280;64052;47.466;9.094;2022-12-16T23:36:32;95738.06;;;1.35;72.01
46456;BME280;64052;47.466;9.094;2022-12-16T23:41:33;95738.22;;;1.32;71.57
46456;BME280;64052;47.466;9.094;2022-12-16T23:46:35;95744.94;;;1.36;71.57
46456;BME280;64052;47.466;9.094;2022-12-16T23:51:36;95738.38;;;1.29;72.11
46456;BME280;64052;47.466;9.094;2022-12-16T23:56:38;95741.78;;;1.29;72.18
